sensor_id;sensor_type;location;lat;lon;timestamp;P1;durP1;ratioP1;P2;durP2;ratioP2
45688;SDS011;31400;48.132;20.872;2023-04-06T00:00:56;12.45;;;4.13;;
45688;SDS011;31400;48.132;20.872;2023-04-06T00:03:22;8.27;;;3.15;;
45688;SDS011;31400;48.132;20.872;2023-04-06T00:05:48;7.80;;;4.00;;
45688;SDS011;31400;48.132;20.872;2023-04-06T00:08:15;9.35;;;3.20;;
45688;SDS011;31400;48.132;20.872;2023-04-06T00:10:41;4.85;;;2.40;;
45688;SDS011;31400;48.132;20.872;2023-04-06T00:13:08;8.40;;;4.80;;
45688;SDS011;31400;48.132;20.872;2023-04-06T00:15:34;11.68;;;3.33;;
45688;SDS011;31400;48.132;20.872;2023-04-06T00:18:00;9.93;;;4.43;;
45688;SDS011;31400;48.132;20.872;2023-04-06T00:20:26;6.57;;;3.25;;
45688;SDS011;31400;48.132;20.872;2023-04-06T00:22:53;15.88;;;3.63;;
45688;SDS011;31400;48.132;20.872;2023-04-06T00:27:45;9.70;;;3.35;;
45688;SDS011;31400;48.132;20.872;2023-04-06T00:30:11;7.60;;;3.47;;
45688;SDS011;31400;48.132;20.872;2023-04-06T00:32:37;4.35;;;2.78;;
45688;SDS011;31400;48.132;20.872;2023-04-06T00:35:04;5.57;;;2.60;;
45688;SDS011;31400;48.132;20.872;2023-04-06T00:37:30;8.75;;;3.00;;
45688;SDS011;31400;48.132;20.872;2023-04-06T00:39:56;8.18;;;3.08;;
45688;SDS011;31400;48.132;20.872;2023-04-06T00:42:22;7.03;;;3.17;;
45688;SDS011;31400;48.132;20.872;2023-04-06T00:44:56;11.68;;;4.13;;
45688;SDS011;31400;48.132;20.872;2023-04-06T00:47:23;12.23;;;3.40;;
45688;SDS011;31400;48.132;20.872;2023-04-06T00:49:50;9.77;;;3.58;;
45688;SDS011;31400;48.132;20.872;2023-04-06T00:54:43;7.72;;;3.92;;
45688;SDS011;31400;48.132;20.872;2023-04-06T00:59:35;3.88;;;2.20;;
45688;SDS011;31400;48.132;20.872;2023-04-06T01:02:01;13.35;;;4.28;;
45688;SDS011;31400;48.132;20.872;2023-04-06T01:04:27;9.50;;;4.05;;
45688;SDS011;31400;48.132;20.872;2023-04-06T01:06:53;10.57;;;4.80;;
45688;SDS011;31400;48.132;20.872;2023-04-06T01:09:19;6.25;;;3.10;;
45688;SDS011;31400;48.132;20.872;2023-04-06T01:11:45;12.20;;;4.38;;
45688;SDS011;31400;48.132;20.872;2023-04-06T01:14:11;9.05;;;4.30;;
45688;SDS011;31400;48.132;20.872;2023-04-06T01:16:38;5.25;;;3.00;;
45688;SDS011;31400;48.132;20.872;2023-04-06T01:19:10;13.10;;;4.78;;
45688;SDS011;31400;48.132;20.872;2023-04-06T01:21:37;5.68;;;3.58;;
45688;SDS011;31400;48.132;20.872;2023-04-06T01:24:03;8.38;;;3.28;;
45688;SDS011;31400;48.132;20.872;2023-04-06T01:28:56;15.02;;;3.88;;
45688;SDS011;31400;48.132;20.872;2023-04-06T01:31:22;6.50;;;3.53;;
45688;SDS011;31400;48.132;20.872;2023-04-06T01:36:14;8.40;;;3.67;;
45688;SDS011;31400;48.132;20.872;2023-04-06T01:38:40;6.72;;;3.67;;
45688;SDS011;31400;48.132;20.872;2023-04-06T01:41:07;8.38;;;3.65;;
45688;SDS011;31400;48.132;20.872;2023-04-06T01:45:59;6.63;;;3.08;;
45688;SDS011;31400;48.132;20.872;2023-04-06T01:48:26;10.18;;;4.25;;
45688;SDS011;31400;48.132;20.872;2023-04-06T01:53:18;5.50;;;2.78;;
45688;SDS011;31400;48.132;20.872;2023-04-06T01:55:44;11.50;;;4.57;;
45688;SDS011;31400;48.132;20.872;2023-04-06T01:58:10;8.52;;;4.60;;
45688;SDS011;31400;48.132;20.872;2023-04-06T02:00:37;11.63;;;3.63;;
45688;SDS011;31400;48.132;20.872;2023-04-06T02:03:03;10.57;;;3.78;;
45688;SDS011;31400;48.132;20.872;2023-04-06T02:05:30;5.53;;;4.20;;
45688;SDS011;31400;48.132;20.872;2023-04-06T02:07:56;18.50;;;5.25;;
45688;SDS011;31400;48.132;20.872;2023-04-06T02:10:22;7.03;;;2.63;;
45688;SDS011;31400;48.132;20.872;2023-04-06T02:12:49;6.13;;;3.05;;
45688;SDS011;31400;48.132;20.872;2023-04-06T02:15:15;7.63;;;3.83;;
45688;SDS011;31400;48.132;20.872;2023-04-06T02:17:41;5.03;;;3.13;;
45688;SDS011;31400;48.132;20.872;2023-04-06T02:20:08;6.25;;;3.60;;
45688;SDS011;31400;48.132;20.872;2023-04-06T02:22:37;6.78;;;3.85;;
45688;SDS011;31400;48.132;20.872;2023-04-06T02:25:03;12.35;;;3.20;;
45688;SDS011;31400;48.132;20.872;2023-04-06T02:27:29;19.02;;;3.95;;
45688;SDS011;31400;48.132;20.872;2023-04-06T02:29:55;8.63;;;4.70;;
45688;SDS011;31400;48.132;20.872;2023-04-06T02:32:21;6.60;;;3.60;;
45688;SDS011;31400;48.132;20.872;2023-04-06T02:34:47;7.10;;;2.85;;
45688;SDS011;31400;48.132;20.872;2023-04-06T02:37:13;9.52;;;3.28;;
45688;SDS011;31400;48.132;20.872;2023-04-06T02:39:40;7.55;;;3.17;;
45688;SDS011;31400;48.132;20.872;2023-04-06T02:44:33;8.80;;;4.70;;
45688;SDS011;31400;48.132;20.872;2023-04-06T02:46:59;6.75;;;4.07;;
45688;SDS011;31400;48.132;20.872;2023-04-06T02:49:25;18.95;;;4.82;;
45688;SDS011;31400;48.132;20.872;2023-04-06T02:51:52;9.27;;;4.53;;
45688;SDS011;31400;48.132;20.872;2023-04-06T02:54:18;11.73;;;4.80;;
45688;SDS011;31400;48.132;20.872;2023-04-06T02:56:44;6.30;;;3.25;;
45688;SDS011;31400;48.132;20.872;2023-04-06T02:59:10;10.85;;;4.25;;
45688;SDS011;31400;48.132;20.872;2023-04-06T03:01:36;7.43;;;3.78;;
45688;SDS011;31400;48.132;20.872;2023-04-06T03:04:02;10.95;;;3.72;;
45688;SDS011;31400;48.132;20.872;2023-04-06T03:06:28;5.18;;;2.72;;
45688;SDS011;31400;48.132;20.872;2023-04-06T03:08:55;14.15;;;5.47;;
45688;SDS011;31400;48.132;20.872;2023-04-06T03:11:21;10.90;;;4.72;;
45688;SDS011;31400;48.132;20.872;2023-04-06T03:13:47;7.93;;;4.32;;
45688;SDS011;31400;48.132;20.872;2023-04-06T03:16:13;10.85;;;3.63;;
45688;SDS011;31400;48.132;20.872;2023-04-06T03:18:39;15.93;;;4.78;;
45688;SDS011;31400;48.132;20.872;2023-04-06T03:21:06;8.13;;;4.10;;
45688;SDS011;31400;48.132;20.872;2023-04-06T03:23:32;9.43;;;3.75;;
45688;SDS011;31400;48.132;20.872;2023-04-06T03:25:58;15.82;;;5.80;;
45688;SDS011;31400;48.132;20.872;2023-04-06T03:28:24;9.32;;;3.58;;
45688;SDS011;31400;48.132;20.872;2023-04-06T03:30:51;8.07;;;4.55;;
45688;SDS011;31400;48.132;20.872;2023-04-06T03:33:17;11.38;;;4.55;;
45688;SDS011;31400;48.132;20.872;2023-04-06T03:35:43;6.78;;;3.25;;
45688;SDS011;31400;48.132;20.872;2023-04-06T03:38:10;6.63;;;2.92;;
45688;SDS011;31400;48.132;20.872;2023-04-06T03:40:36;9.60;;;4.65;;
45688;SDS011;31400;48.132;20.872;2023-04-06T03:43:02;7.75;;;3.13;;
45688;SDS011;31400;48.132;20.872;2023-04-06T03:45:28;9.35;;;4.72;;
45688;SDS011;31400;48.132;20.872;2023-04-06T03:47:54;9.35;;;4.68;;
45688;SDS011;31400;48.132;20.872;2023-04-06T03:50:20;11.95;;;4.80;;
45688;SDS011;31400;48.132;20.872;2023-04-06T03:52:46;8.45;;;3.00;;
45688;SDS011;31400;48.132;20.872;2023-04-06T03:55:12;18.08;;;4.00;;
45688;SDS011;31400;48.132;20.872;2023-04-06T03:57:38;9.80;;;4.50;;
45688;SDS011;31400;48.132;20.872;2023-04-06T04:00:04;14.98;;;4.82;;
45688;SDS011;31400;48.132;20.872;2023-04-06T04:02:31;9.80;;;4.47;;
45688;SDS011;31400;48.132;20.872;2023-04-06T04:04:57;9.07;;;3.75;;
45688;SDS011;31400;48.132;20.872;2023-04-06T04:07:23;11.85;;;5.22;;
45688;SDS011;31400;48.132;20.872;2023-04-06T04:09:49;9.80;;;4.82;;
45688;SDS011;31400;48.132;20.872;2023-04-06T04:12:15;5.70;;;3.03;;
45688;SDS011;31400;48.132;20.872;2023-04-06T04:14:41;9.75;;;3.00;;
45688;SDS011;31400;48.132;20.872;2023-04-06T04:17:08;9.30;;;2.97;;
45688;SDS011;31400;48.132;20.872;2023-04-06T04:19:35;10.70;;;3.83;;
45688;SDS011;31400;48.132;20.872;2023-04-06T04:22:01;9.52;;;5.30;;
45688;SDS011;31400;48.132;20.872;2023-04-06T04:24:29;13.40;;;4.15;;
45688;SDS011;31400;48.132;20.872;2023-04-06T04:26:56;10.07;;;3.45;;
45688;SDS011;31400;48.132;20.872;2023-04-06T04:29:22;8.23;;;4.40;;
45688;SDS011;31400;48.132;20.872;2023-04-06T04:31:49;9.18;;;4.45;;
45688;SDS011;31400;48.132;20.872;2023-04-06T04:34:16;12.07;;;3.78;;
45688;SDS011;31400;48.132;20.872;2023-04-06T04:36:42;11.65;;;4.85;;
45688;SDS011;31400;48.132;20.872;2023-04-06T04:39:08;7.80;;;3.92;;
45688;SDS011;31400;48.132;20.872;2023-04-06T04:41:34;8.40;;;4.82;;
45688;SDS011;31400;48.132;20.872;2023-04-06T04:44:00;7.28;;;3.92;;
45688;SDS011;31400;48.132;20.872;2023-04-06T04:46:26;8.25;;;4.28;;
45688;SDS011;31400;48.132;20.872;2023-04-06T04:48:52;13.57;;;4.72;;
45688;SDS011;31400;48.132;20.872;2023-04-06T04:51:18;14.70;;;4.80;;
45688;SDS011;31400;48.132;20.872;2023-04-06T04:53:45;9.50;;;5.47;;
45688;SDS011;31400;48.132;20.872;2023-04-06T04:56:11;11.85;;;5.13;;
45688;SDS011;31400;48.132;20.872;2023-04-06T04:58:37;7.70;;;3.72;;
45688;SDS011;31400;48.132;20.872;2023-04-06T05:01:03;10.85;;;5.43;;
45688;SDS011;31400;48.132;20.872;2023-04-06T05:03:29;12.30;;;4.78;;
45688;SDS011;31400;48.132;20.872;2023-04-06T05:05:55;10.75;;;4.18;;
45688;SDS011;31400;48.132;20.872;2023-04-06T05:08:21;14.80;;;5.35;;
45688;SDS011;31400;48.132;20.872;2023-04-06T05:10:48;8.68;;;4.13;;
45688;SDS011;31400;48.132;20.872;2023-04-06T05:13:14;14.13;;;3.80;;
45688;SDS011;31400;48.132;20.872;2023-04-06T05:15:40;7.78;;;3.95;;
45688;SDS011;31400;48.132;20.872;2023-04-06T05:18:07;5.97;;;3.72;;
45688;SDS011;31400;48.132;20.872;2023-04-06T05:20:34;12.32;;;5.07;;
45688;SDS011;31400;48.132;20.872;2023-04-06T05:23:00;16.55;;;5.88;;
45688;SDS011;31400;48.132;20.872;2023-04-06T05:25:26;10.88;;;5.45;;
45688;SDS011;31400;48.132;20.872;2023-04-06T05:27:52;10.30;;;3.75;;
45688;SDS011;31400;48.132;20.872;2023-04-06T05:30:18;10.40;;;3.83;;
45688;SDS011;31400;48.132;20.872;2023-04-06T05:35:11;9.60;;;5.05;;
45688;SDS011;31400;48.132;20.872;2023-04-06T05:37:38;14.07;;;5.25;;
45688;SDS011;31400;48.132;20.872;2023-04-06T05:42:42;11.02;;;4.90;;
45688;SDS011;31400;48.132;20.872;2023-04-06T05:45:09;6.30;;;3.08;;
45688;SDS011;31400;48.132;20.872;2023-04-06T05:47:42;8.25;;;4.82;;
45688;SDS011;31400;48.132;20.872;2023-04-06T05:50:09;13.80;;;6.03;;
45688;SDS011;31400;48.132;20.872;2023-04-06T05:52:35;8.07;;;4.68;;
45688;SDS011;31400;48.132;20.872;2023-04-06T05:55:02;9.18;;;4.60;;
45688;SDS011;31400;48.132;20.872;2023-04-06T05:59:54;11.13;;;4.07;;
45688;SDS011;31400;48.132;20.872;2023-04-06T06:02:20;9.55;;;4.22;;
45688;SDS011;31400;48.132;20.872;2023-04-06T06:07:13;24.42;;;4.03;;
45688;SDS011;31400;48.132;20.872;2023-04-06T06:09:39;9.70;;;4.75;;
45688;SDS011;31400;48.132;20.872;2023-04-06T06:12:05;10.45;;;5.72;;
45688;SDS011;31400;48.132;20.872;2023-04-06T06:14:32;6.03;;;3.00;;
45688;SDS011;31400;48.132;20.872;2023-04-06T06:16:58;10.52;;;3.70;;
45688;SDS011;31400;48.132;20.872;2023-04-06T06:19:25;8.88;;;2.95;;
45688;SDS011;31400;48.132;20.872;2023-04-06T06:21:51;11.23;;;4.35;;
45688;SDS011;31400;48.132;20.872;2023-04-06T06:24:17;9.32;;;3.60;;
45688;SDS011;31400;48.132;20.872;2023-04-06T06:26:43;7.88;;;4.22;;
45688;SDS011;31400;48.132;20.872;2023-04-06T06:29:09;9.90;;;3.80;;
45688;SDS011;31400;48.132;20.872;2023-04-06T06:31:35;6.13;;;3.47;;
45688;SDS011;31400;48.132;20.872;2023-04-06T06:34:01;7.53;;;3.63;;
45688;SDS011;31400;48.132;20.872;2023-04-06T06:36:28;3.65;;;2.38;;
45688;SDS011;31400;48.132;20.872;2023-04-06T06:38:56;5.13;;;2.17;;
45688;SDS011;31400;48.132;20.872;2023-04-06T06:41:23;4.90;;;2.13;;
45688;SDS011;31400;48.132;20.872;2023-04-06T06:46:15;6.07;;;1.75;;
45688;SDS011;31400;48.132;20.872;2023-04-06T06:48:41;8.93;;;2.17;;
45688;SDS011;31400;48.132;20.872;2023-04-06T06:51:08;4.40;;;2.80;;
45688;SDS011;31400;48.132;20.872;2023-04-06T06:53:34;4.30;;;2.42;;
45688;SDS011;31400;48.132;20.872;2023-04-06T06:56:01;3.30;;;2.05;;
45688;SDS011;31400;48.132;20.872;2023-04-06T06:58:27;7.20;;;2.92;;
45688;SDS011;31400;48.132;20.872;2023-04-06T07:00:59;3.30;;;1.75;;
45688;SDS011;31400;48.132;20.872;2023-04-06T07:03:25;6.10;;;3.00;;
45688;SDS011;31400;48.132;20.872;2023-04-06T07:08:18;7.38;;;2.88;;
45688;SDS011;31400;48.132;20.872;2023-04-06T07:10:45;5.53;;;2.92;;
45688;SDS011;31400;48.132;20.872;2023-04-06T07:13:11;7.68;;;3.75;;
45688;SDS011;31400;48.132;20.872;2023-04-06T07:15:37;7.45;;;3.78;;
45688;SDS011;31400;48.132;20.872;2023-04-06T07:18:04;6.28;;;2.47;;
45688;SDS011;31400;48.132;20.872;2023-04-06T07:20:30;4.50;;;2.40;;
45688;SDS011;31400;48.132;20.872;2023-04-06T07:22:56;5.03;;;2.92;;
45688;SDS011;31400;48.132;20.872;2023-04-06T07:25:22;7.40;;;3.05;;
45688;SDS011;31400;48.132;20.872;2023-04-06T07:27:48;4.93;;;3.10;;
45688;SDS011;31400;48.132;20.872;2023-04-06T07:30:14;4.28;;;2.20;;
45688;SDS011;31400;48.132;20.872;2023-04-06T07:32:40;3.97;;;2.40;;
45688;SDS011;31400;48.132;20.872;2023-04-06T07:35:09;6.22;;;4.03;;
45688;SDS011;31400;48.132;20.872;2023-04-06T07:37:35;7.47;;;3.30;;
45688;SDS011;31400;48.132;20.872;2023-04-06T07:40:03;7.88;;;2.42;;
45688;SDS011;31400;48.132;20.872;2023-04-06T07:42:29;9.13;;;3.90;;
45688;SDS011;31400;48.132;20.872;2023-04-06T07:44:55;7.18;;;3.63;;
45688;SDS011;31400;48.132;20.872;2023-04-06T07:47:22;6.63;;;3.50;;
45688;SDS011;31400;48.132;20.872;2023-04-06T07:49:48;9.48;;;3.72;;
45688;SDS011;31400;48.132;20.872;2023-04-06T07:52:15;7.88;;;3.63;;
45688;SDS011;31400;48.132;20.872;2023-04-06T07:54:41;5.55;;;3.20;;
45688;SDS011;31400;48.132;20.872;2023-04-06T07:57:07;7.00;;;3.25;;
45688;SDS011;31400;48.132;20.872;2023-04-06T07:59:33;5.82;;;3.80;;
45688;SDS011;31400;48.132;20.872;2023-04-06T08:01:59;9.57;;;2.80;;
45688;SDS011;31400;48.132;20.872;2023-04-06T08:04:26;4.72;;;2.88;;
45688;SDS011;31400;48.132;20.872;2023-04-06T08:06:52;4.53;;;2.72;;
45688;SDS011;31400;48.132;20.872;2023-04-06T08:09:18;4.28;;;2.10;;
45688;SDS011;31400;48.132;20.872;2023-04-06T08:11:44;2.85;;;2.38;;
45688;SDS011;31400;48.132;20.872;2023-04-06T08:14:11;6.00;;;3.15;;
45688;SDS011;31400;48.132;20.872;2023-04-06T08:16:37;4.93;;;3.03;;
45688;SDS011;31400;48.132;20.872;2023-04-06T08:19:03;8.15;;;2.72;;
45688;SDS011;31400;48.132;20.872;2023-04-06T08:21:29;8.88;;;4.15;;
45688;SDS011;31400;48.132;20.872;2023-04-06T08:23:55;9.93;;;2.53;;
45688;SDS011;31400;48.132;20.872;2023-04-06T08:26:21;6.78;;;3.95;;
45688;SDS011;31400;48.132;20.872;2023-04-06T08:28:47;5.15;;;2.83;;
45688;SDS011;31400;48.132;20.872;2023-04-06T08:31:13;7.90;;;5.03;;
45688;SDS011;31400;48.132;20.872;2023-04-06T08:33:40;4.75;;;2.58;;
45688;SDS011;31400;48.132;20.872;2023-04-06T08:36:07;8.18;;;2.80;;
45688;SDS011;31400;48.132;20.872;2023-04-06T08:38:33;6.78;;;3.45;;
45688;SDS011;31400;48.132;20.872;2023-04-06T08:40:59;6.85;;;3.15;;
45688;SDS011;31400;48.132;20.872;2023-04-06T08:43:25;5.82;;;3.08;;
45688;SDS011;31400;48.132;20.872;2023-04-06T08:45:52;7.50;;;2.55;;
45688;SDS011;31400;48.132;20.872;2023-04-06T08:48:18;6.75;;;2.88;;
45688;SDS011;31400;48.132;20.872;2023-04-06T08:50:44;7.93;;;4.43;;
45688;SDS011;31400;48.132;20.872;2023-04-06T08:53:11;6.40;;;3.15;;
45688;SDS011;31400;48.132;20.872;2023-04-06T08:58:03;12.82;;;3.28;;
45688;SDS011;31400;48.132;20.872;2023-04-06T09:00:33;5.63;;;3.30;;
45688;SDS011;31400;48.132;20.872;2023-04-06T09:05:28;10.32;;;3.15;;
45688;SDS011;31400;48.132;20.872;2023-04-06T09:07:55;9.93;;;4.03;;
45688;SDS011;31400;48.132;20.872;2023-04-06T09:10:21;5.13;;;2.75;;
45688;SDS011;31400;48.132;20.872;2023-04-06T09:12:50;6.20;;;3.80;;
45688;SDS011;31400;48.132;20.872;2023-04-06T09:15:20;7.60;;;3.28;;
45688;SDS011;31400;48.132;20.872;2023-04-06T09:17:46;7.43;;;4.32;;
45688;SDS011;31400;48.132;20.872;2023-04-06T09:20:12;6.80;;;3.15;;
45688;SDS011;31400;48.132;20.872;2023-04-06T09:22:39;6.43;;;3.53;;
45688;SDS011;31400;48.132;20.872;2023-04-06T09:25:06;5.95;;;3.10;;
45688;SDS011;31400;48.132;20.872;2023-04-06T09:27:36;16.05;;;4.07;;
45688;SDS011;31400;48.132;20.872;2023-04-06T09:32:30;6.95;;;3.60;;
45688;SDS011;31400;48.132;20.872;2023-04-06T09:35:07;10.85;;;3.10;;
45688;SDS011;31400;48.132;20.872;2023-04-06T09:37:34;7.70;;;4.45;;
45688;SDS011;31400;48.132;20.872;2023-04-06T09:40:03;8.95;;;3.13;;
45688;SDS011;31400;48.132;20.872;2023-04-06T09:42:30;5.97;;;3.72;;
45688;SDS011;31400;48.132;20.872;2023-04-06T09:44:56;6.68;;;3.20;;
45688;SDS011;31400;48.132;20.872;2023-04-06T09:47:24;8.75;;;4.43;;
45688;SDS011;31400;48.132;20.872;2023-04-06T09:49:52;9.25;;;3.97;;
45688;SDS011;31400;48.132;20.872;2023-04-06T09:52:21;6.40;;;2.92;;
45688;SDS011;31400;48.132;20.872;2023-04-06T09:54:49;10.88;;;3.45;;
45688;SDS011;31400;48.132;20.872;2023-04-06T09:57:25;6.70;;;3.25;;
45688;SDS011;31400;48.132;20.872;2023-04-06T10:00:01;8.88;;;4.00;;
45688;SDS011;31400;48.132;20.872;2023-04-06T10:05:01;7.80;;;4.50;;
45688;SDS011;31400;48.132;20.872;2023-04-06T10:07:28;7.68;;;3.83;;
45688;SDS011;31400;48.132;20.872;2023-04-06T10:09:54;9.25;;;5.20;;
45688;SDS011;31400;48.132;20.872;2023-04-06T10:14:47;7.05;;;3.80;;
45688;SDS011;31400;48.132;20.872;2023-04-06T10:17:14;11.45;;;4.15;;
45688;SDS011;31400;48.132;20.872;2023-04-06T10:22:12;18.05;;;6.22;;
45688;SDS011;31400;48.132;20.872;2023-04-06T10:24:44;7.32;;;4.72;;
45688;SDS011;31400;48.132;20.872;2023-04-06T10:27:10;10.52;;;5.00;;
45688;SDS011;31400;48.132;20.872;2023-04-06T10:29:43;9.93;;;5.05;;
45688;SDS011;31400;48.132;20.872;2023-04-06T10:32:10;12.07;;;4.78;;
45688;SDS011;31400;48.132;20.872;2023-04-06T10:34:36;11.20;;;4.90;;
45688;SDS011;31400;48.132;20.872;2023-04-06T10:37:45;17.73;;;6.65;;
45688;SDS011;31400;48.132;20.872;2023-04-06T10:39:55;7.03;;;4.03;;
45688;SDS011;31400;48.132;20.872;2023-04-06T10:42:36;7.15;;;4.13;;
45688;SDS011;31400;48.132;20.872;2023-04-06T10:45:04;7.97;;;4.45;;
45688;SDS011;31400;48.132;20.872;2023-04-06T10:47:38;8.88;;;4.82;;
45688;SDS011;31400;48.132;20.872;2023-04-06T10:50:05;9.43;;;4.07;;
45688;SDS011;31400;48.132;20.872;2023-04-06T10:52:31;9.65;;;4.90;;
45688;SDS011;31400;48.132;20.872;2023-04-06T10:54:57;8.75;;;5.13;;
45688;SDS011;31400;48.132;20.872;2023-04-06T10:57:29;6.18;;;3.95;;
45688;SDS011;31400;48.132;20.872;2023-04-06T10:59:58;8.77;;;4.38;;
45688;SDS011;31400;48.132;20.872;2023-04-06T11:02:24;8.60;;;4.78;;
45688;SDS011;31400;48.132;20.872;2023-04-06T11:04:55;9.07;;;4.60;;
45688;SDS011;31400;48.132;20.872;2023-04-06T11:07:22;5.65;;;4.13;;
45688;SDS011;31400;48.132;20.872;2023-04-06T11:09:49;9.40;;;5.55;;
45688;SDS011;31400;48.132;20.872;2023-04-06T11:17:29;6.63;;;3.90;;
45688;SDS011;31400;48.132;20.872;2023-04-06T11:19:56;8.93;;;4.18;;
45688;SDS011;31400;48.132;20.872;2023-04-06T11:22:23;11.68;;;5.60;;
45688;SDS011;31400;48.132;20.872;2023-04-06T11:24:49;9.30;;;5.93;;
45688;SDS011;31400;48.132;20.872;2023-04-06T11:27:15;9.88;;;6.63;;
45688;SDS011;31400;48.132;20.872;2023-04-06T11:32:09;8.23;;;4.60;;
45688;SDS011;31400;48.132;20.872;2023-04-06T11:34:36;8.38;;;5.00;;
45688;SDS011;31400;48.132;20.872;2023-04-06T11:37:04;11.18;;;5.53;;
45688;SDS011;31400;48.132;20.872;2023-04-06T11:39:37;8.57;;;5.10;;
45688;SDS011;31400;48.132;20.872;2023-04-06T11:42:04;11.40;;;5.00;;
45688;SDS011;31400;48.132;20.872;2023-04-06T11:44:34;10.65;;;5.20;;
45688;SDS011;31400;48.132;20.872;2023-04-06T11:47:01;11.32;;;5.65;;
45688;SDS011;31400;48.132;20.872;2023-04-06T11:49:30;21.65;;;6.72;;
45688;SDS011;31400;48.132;20.872;2023-04-06T11:51:57;10.85;;;6.22;;
45688;SDS011;31400;48.132;20.872;2023-04-06T11:54:30;10.25;;;5.82;;
45688;SDS011;31400;48.132;20.872;2023-04-06T11:56:56;10.73;;;5.45;;
45688;SDS011;31400;48.132;20.872;2023-04-06T11:59:22;7.95;;;5.03;;
45688;SDS011;31400;48.132;20.872;2023-04-06T12:01:48;13.77;;;4.93;;
45688;SDS011;31400;48.132;20.872;2023-04-06T12:04:14;14.85;;;5.88;;
45688;SDS011;31400;48.132;20.872;2023-04-06T12:06:42;9.88;;;4.53;;
45688;SDS011;31400;48.132;20.872;2023-04-06T12:09:08;13.90;;;5.57;;
45688;SDS011;31400;48.132;20.872;2023-04-06T12:11:34;8.88;;;4.70;;
45688;SDS011;31400;48.132;20.872;2023-04-06T12:14:01;7.95;;;4.03;;
45688;SDS011;31400;48.132;20.872;2023-04-06T12:16:29;7.63;;;4.05;;
45688;SDS011;31400;48.132;20.872;2023-04-06T12:18:55;8.38;;;4.75;;
45688;SDS011;31400;48.132;20.872;2023-04-06T12:21:22;11.25;;;5.80;;
45688;SDS011;31400;48.132;20.872;2023-04-06T12:23:48;12.02;;;4.15;;
45688;SDS011;31400;48.132;20.872;2023-04-06T12:26:14;12.35;;;6.88;;
45688;SDS011;31400;48.132;20.872;2023-04-06T12:28:40;7.97;;;4.38;;
45688;SDS011;31400;48.132;20.872;2023-04-06T12:31:07;10.27;;;5.40;;
45688;SDS011;31400;48.132;20.872;2023-04-06T12:33:33;9.20;;;5.60;;
45688;SDS011;31400;48.132;20.872;2023-04-06T12:35:59;12.98;;;5.63;;
45688;SDS011;31400;48.132;20.872;2023-04-06T12:38:25;7.43;;;4.53;;
45688;SDS011;31400;48.132;20.872;2023-04-06T12:40:52;10.95;;;5.03;;
45688;SDS011;31400;48.132;20.872;2023-04-06T12:43:18;6.97;;;4.72;;
45688;SDS011;31400;48.132;20.872;2023-04-06T12:48:11;10.05;;;4.72;;
45688;SDS011;31400;48.132;20.872;2023-04-06T12:50:37;7.55;;;4.75;;
45688;SDS011;31400;48.132;20.872;2023-04-06T12:53:03;8.90;;;5.60;;
45688;SDS011;31400;48.132;20.872;2023-04-06T12:55:29;8.05;;;4.20;;
45688;SDS011;31400;48.132;20.872;2023-04-06T12:57:57;9.52;;;5.43;;
45688;SDS011;31400;48.132;20.872;2023-04-06T13:00:23;8.35;;;4.88;;
45688;SDS011;31400;48.132;20.872;2023-04-06T13:02:49;9.18;;;5.72;;
45688;SDS011;31400;48.132;20.872;2023-04-06T13:05:15;9.95;;;5.57;;
45688;SDS011;31400;48.132;20.872;2023-04-06T13:07:43;6.85;;;4.45;;
45688;SDS011;31400;48.132;20.872;2023-04-06T13:10:10;9.88;;;5.93;;
45688;SDS011;31400;48.132;20.872;2023-04-06T13:12:36;12.07;;;7.15;;
45688;SDS011;31400;48.132;20.872;2023-04-06T13:15:02;10.75;;;5.35;;
45688;SDS011;31400;48.132;20.872;2023-04-06T13:17:29;9.95;;;4.97;;
45688;SDS011;31400;48.132;20.872;2023-04-06T13:19:55;8.98;;;5.60;;
45688;SDS011;31400;48.132;20.872;2023-04-06T13:22:21;11.05;;;5.78;;
45688;SDS011;31400;48.132;20.872;2023-04-06T13:24:47;10.32;;;5.00;;
45688;SDS011;31400;48.132;20.872;2023-04-06T13:27:13;8.82;;;4.95;;
45688;SDS011;31400;48.132;20.872;2023-04-06T13:29:39;9.82;;;4.82;;
45688;SDS011;31400;48.132;20.872;2023-04-06T13:32:05;13.13;;;5.65;;
45688;SDS011;31400;48.132;20.872;2023-04-06T13:34:32;11.73;;;5.53;;
45688;SDS011;31400;48.132;20.872;2023-04-06T13:36:58;10.13;;;5.03;;
45688;SDS011;31400;48.132;20.872;2023-04-06T13:41:53;8.30;;;4.50;;
45688;SDS011;31400;48.132;20.872;2023-04-06T13:44:21;8.27;;;5.45;;
45688;SDS011;31400;48.132;20.872;2023-04-06T13:46:47;7.72;;;4.88;;
45688;SDS011;31400;48.132;20.872;2023-04-06T13:49:13;9.30;;;5.25;;
45688;SDS011;31400;48.132;20.872;2023-04-06T13:51:42;9.13;;;4.57;;
45688;SDS011;31400;48.132;20.872;2023-04-06T13:54:08;12.10;;;5.07;;
45688;SDS011;31400;48.132;20.872;2023-04-06T13:56:34;9.25;;;4.88;;
45688;SDS011;31400;48.132;20.872;2023-04-06T13:59:02;9.63;;;5.43;;
45688;SDS011;31400;48.132;20.872;2023-04-06T14:01:28;8.32;;;5.32;;
45688;SDS011;31400;48.132;20.872;2023-04-06T14:03:54;14.88;;;5.82;;
45688;SDS011;31400;48.132;20.872;2023-04-06T14:06:20;11.73;;;4.95;;
45688;SDS011;31400;48.132;20.872;2023-04-06T14:08:46;6.55;;;3.55;;
45688;SDS011;31400;48.132;20.872;2023-04-06T14:11:13;9.70;;;5.40;;
45688;SDS011;31400;48.132;20.872;2023-04-06T14:13:39;6.85;;;3.20;;
45688;SDS011;31400;48.132;20.872;2023-04-06T14:16:06;9.95;;;5.13;;
45688;SDS011;31400;48.132;20.872;2023-04-06T14:18:32;7.95;;;4.13;;
45688;SDS011;31400;48.132;20.872;2023-04-06T14:20:59;13.73;;;5.68;;
45688;SDS011;31400;48.132;20.872;2023-04-06T14:25:52;41.53;;;17.17;;
45688;SDS011;31400;48.132;20.872;2023-04-06T14:30:44;15.10;;;7.43;;
45688;SDS011;31400;48.132;20.872;2023-04-06T14:33:10;14.82;;;6.97;;
45688;SDS011;31400;48.132;20.872;2023-04-06T14:35:40;9.55;;;5.63;;
45688;SDS011;31400;48.132;20.872;2023-04-06T14:38:06;11.77;;;6.00;;
45688;SDS011;31400;48.132;20.872;2023-04-06T14:40:34;7.80;;;5.25;;
45688;SDS011;31400;48.132;20.872;2023-04-06T14:43:01;11.55;;;5.15;;
45688;SDS011;31400;48.132;20.872;2023-04-06T14:45:27;9.70;;;5.45;;
45688;SDS011;31400;48.132;20.872;2023-04-06T14:47:53;8.55;;;5.20;;
45688;SDS011;31400;48.132;20.872;2023-04-06T14:50:19;11.57;;;5.20;;
45688;SDS011;31400;48.132;20.872;2023-04-06T14:52:45;12.77;;;6.30;;
45688;SDS011;31400;48.132;20.872;2023-04-06T14:55:11;12.75;;;5.45;;
45688;SDS011;31400;48.132;20.872;2023-04-06T14:57:38;74.97;;;39.40;;
45688;SDS011;31400;48.132;20.872;2023-04-06T15:00:05;46.17;;;23.45;;
45688;SDS011;31400;48.132;20.872;2023-04-06T15:02:33;36.92;;;22.23;;
45688;SDS011;31400;48.132;20.872;2023-04-06T15:04:59;34.63;;;18.98;;
45688;SDS011;31400;48.132;20.872;2023-04-06T15:07:25;86.68;;;43.42;;
45688;SDS011;31400;48.132;20.872;2023-04-06T15:09:51;31.02;;;16.23;;
45688;SDS011;31400;48.132;20.872;2023-04-06T15:12:17;13.20;;;6.95;;
45688;SDS011;31400;48.132;20.872;2023-04-06T15:14:43;16.30;;;5.38;;
45688;SDS011;31400;48.132;20.872;2023-04-06T15:17:09;15.15;;;6.10;;
45688;SDS011;31400;48.132;20.872;2023-04-06T15:19:35;12.88;;;7.47;;
45688;SDS011;31400;48.132;20.872;2023-04-06T15:22:01;13.45;;;8.15;;
45688;SDS011;31400;48.132;20.872;2023-04-06T15:24:27;12.52;;;6.38;;
45688;SDS011;31400;48.132;20.872;2023-04-06T15:26:53;12.63;;;6.15;;
45688;SDS011;31400;48.132;20.872;2023-04-06T15:29:19;10.95;;;6.65;;
45688;SDS011;31400;48.132;20.872;2023-04-06T15:31:46;16.67;;;8.73;;
45688;SDS011;31400;48.132;20.872;2023-04-06T15:34:12;16.60;;;8.68;;